Juneau, AK

4:27 AM AKDT on July 31, 2015 (GMT -0800)
Juneau International | | Change Station
CLOSE
Current Station
Airport
Location: Juneau,
Elevation: 23 ft
Nearby Weather Stations

Elev 23 ft 58.35 °N, 134.58 °W | Updated 11 minutes ago

Overcast
Overcast
51 °F
Feels Like 51 °F
N
5
Wind Variable Wind from East

Today
High -- | Low -- °F
--% Chance of Precip.
Yesterday
High -- | Low -- °F
Precip. -- in
4:47 AM 9:20 PM
Full, 100% visible
Pressure 29.98 in
Visibility 2.0 miles
Clouds Scattered Clouds 100 ft
Mostly Cloudy 4300 ft
Overcast 7000 ft
Dew Point 51 °F
Humidity 100%
Rainfall 0.04 in
Snow Depth Not available.
UV 0 out of 12
Pollen Not available.
Air Quality Not available.
Flu Activity Not available.
SPECI PAJN 311216Z 09004KT 2SM BR SCT001 BKN043 OVC070 11/11 A2998 RMK AO2 RAE1156 VIS NW-NE 10 SE 1 P0000 T01060106

More Conditions Fewer Conditions

Pressure 29.98 in
Visibility 2.0 miles
Clouds Scattered Clouds 100 ft
Mostly Cloudy 4300 ft
Overcast 7000 ft
Dew Point 51 °F
Humidity 100%
Rainfall 0.04 in
Snow Depth Not available.
UV 0 out of 12
Pollen Not available.
Air Quality Not available.
Flu Activity Not available.
SPECI PAJN 311216Z 09004KT 2SM BR SCT001 BKN043 OVC070 11/11 A2998 RMK AO2 RAE1156 VIS NW-NE 10 SE 1 P0000 T01060106

More Conditions Fewer Conditions

10-Day Weather Forecast

×

Almanac

Astronomy

Jul. 31, 2015 Rise Set
Actual Time
Civil Twilight
Nautical Twilight
Astronomical Twilight
Moon
Length of Visible Light
Length of Day
Tomorrow will be .
, % of the Moon is Illuminated

Today's Extremes

State Highs State Lows

Community

WunderPhotos

Upload Photos

1,842,646 photos uploaded!

WunderBlogs® & News

Nearby

Air Quality

  Air Quality AQ Index Pollutant
Not available.

Snow Depth

Station Depth Elevation

Earthquake Activity

City Distance Mag. Time & Date
Minimum magnitude displayed is 2.5.

Coastal Water Temperatures

Place Temperature

Stations

Nearby Weather Stations

Station Location Temp. Windchill Dew Point Humidity Wind Precip. Elev Updated Type